Hamlin, West Virginia
Current Conditions -  °F | °C
As of 8:51 PM on Monday 24 Nov 2014 (Local Time) from KHTS Reporting Station
Clear Clear  
Wind Chill: 41°   Ceiling: Unl
Heat Index: 45°   Visibility: 10mi
Dew Point: 36°   Wind: 7mph
Humidity: 71%   Direction: 310°NW
Pressure: 29.89"   Gusts: NA
Location:  38.28°N, 82.1°W
Report Text: KHTS 250151Z 31006KT 10SM CLR 07/02 A2989 RMK AO2 SLP120 T00720022
Loading
Personal Weather Stations






























Interactive Weather Map New forecast layout! Learn more

10-Day Weather Forecast

Advertisements
Track Severe Weather on mobile